sensor_id;sensor_type;location;lat;lon;timestamp;P1;durP1;ratioP1;P2;durP2;ratioP2
9852;SDS011;4965;43.238;27.864;2022-07-29T00:00:09;3.88;;;2.97;;
9852;SDS011;4965;43.238;27.864;2022-07-29T00:02:37;2.75;;;2.55;;
9852;SDS011;4965;43.238;27.864;2022-07-29T00:05:04;3.25;;;2.95;;
9852;SDS011;4965;43.238;27.864;2022-07-29T00:07:33;5.57;;;3.08;;
9852;SDS011;4965;43.238;27.864;2022-07-29T00:10:00;3.67;;;3.30;;
9852;SDS011;4965;43.238;27.864;2022-07-29T00:12:26;4.43;;;3.30;;
9852;SDS011;4965;43.238;27.864;2022-07-29T00:14:54;3.80;;;2.80;;
9852;SDS011;4965;43.238;27.864;2022-07-29T00:17:21;3.03;;;2.67;;
9852;SDS011;4965;43.238;27.864;2022-07-29T00:19:48;4.43;;;2.97;;
9852;SDS011;4965;43.238;27.864;2022-07-29T00:22:15;8.80;;;3.40;;
9852;SDS011;4965;43.238;27.864;2022-07-29T00:24:43;3.25;;;2.92;;
9852;SDS011;4965;43.238;27.864;2022-07-29T00:27:10;4.70;;;2.90;;
9852;SDS011;4965;43.238;27.864;2022-07-29T00:29:37;3.47;;;2.72;;
9852;SDS011;4965;43.238;27.864;2022-07-29T00:32:04;4.75;;;2.70;;
9852;SDS011;4965;43.238;27.864;2022-07-29T00:34:31;3.20;;;2.90;;
9852;SDS011;4965;43.238;27.864;2022-07-29T00:37:16;3.72;;;2.63;;
9852;SDS011;4965;43.238;27.864;2022-07-29T00:39:44;3.08;;;2.75;;
9852;SDS011;4965;43.238;27.864;2022-07-29T00:42:11;3.15;;;2.60;;
9852;SDS011;4965;43.238;27.864;2022-07-29T00:44:38;2.85;;;2.50;;
9852;SDS011;4965;43.238;27.864;2022-07-29T00:47:05;2.65;;;2.45;;
9852;SDS011;4965;43.238;27.864;2022-07-29T00:49:33;5.30;;;2.80;;
9852;SDS011;4965;43.238;27.864;2022-07-29T00:52:00;6.78;;;3.00;;
9852;SDS011;4965;43.238;27.864;2022-07-29T00:54:27;7.35;;;2.63;;
9852;SDS011;4965;43.238;27.864;2022-07-29T00:56:57;2.47;;;2.28;;
9852;SDS011;4965;43.238;27.864;2022-07-29T00:59:24;2.55;;;2.35;;
9852;SDS011;4965;43.238;27.864;2022-07-29T01:01:52;6.20;;;2.60;;
9852;SDS011;4965;43.238;27.864;2022-07-29T01:04:19;2.63;;;2.38;;
9852;SDS011;4965;43.238;27.864;2022-07-29T01:06:46;3.97;;;2.55;;
9852;SDS011;4965;43.238;27.864;2022-07-29T01:09:13;2.38;;;2.20;;
9852;SDS011;4965;43.238;27.864;2022-07-29T01:11:41;5.20;;;2.63;;
9852;SDS011;4965;43.238;27.864;2022-07-29T01:14:11;2.50;;;2.30;;
9852;SDS011;4965;43.238;27.864;2022-07-29T01:16:39;3.22;;;3.03;;
9852;SDS011;4965;43.238;27.864;2022-07-29T01:19:23;4.57;;;2.78;;
9852;SDS011;4965;43.238;27.864;2022-07-29T01:22:26;3.10;;;2.85;;
9852;SDS011;4965;43.238;27.864;2022-07-29T01:28:01;2.63;;;2.47;;
9852;SDS011;4965;43.238;27.864;2022-07-29T01:30:44;2.80;;;2.60;;
9852;SDS011;4965;43.238;27.864;2022-07-29T01:33:16;4.20;;;2.70;;
9852;SDS011;4965;43.238;27.864;2022-07-29T01:36:00;4.50;;;2.88;;
9852;SDS011;4965;43.238;27.864;2022-07-29T01:38:32;3.42;;;2.58;;
9852;SDS011;4965;43.238;27.864;2022-07-29T01:41:02;4.43;;;2.88;;
9852;SDS011;4965;43.238;27.864;2022-07-29T01:43:36;5.47;;;2.50;;
9852;SDS011;4965;43.238;27.864;2022-07-29T01:46:11;8.98;;;2.70;;
9852;SDS011;4965;43.238;27.864;2022-07-29T01:48:47;6.18;;;3.20;;
9852;SDS011;4965;43.238;27.864;2022-07-29T01:51:20;3.63;;;3.10;;
9852;SDS011;4965;43.238;27.864;2022-07-29T01:53:54;4.78;;;2.75;;
9852;SDS011;4965;43.238;27.864;2022-07-29T01:56:25;2.70;;;2.50;;
9852;SDS011;4965;43.238;27.864;2022-07-29T01:58:57;3.22;;;2.28;;
9852;SDS011;4965;43.238;27.864;2022-07-29T02:01:27;5.25;;;2.72;;
9852;SDS011;4965;43.238;27.864;2022-07-29T02:03:55;3.25;;;2.42;;
9852;SDS011;4965;43.238;27.864;2022-07-29T02:06:23;5.20;;;2.50;;
9852;SDS011;4965;43.238;27.864;2022-07-29T02:08:52;3.58;;;2.72;;
9852;SDS011;4965;43.238;27.864;2022-07-29T02:11:20;2.92;;;2.60;;
9852;SDS011;4965;43.238;27.864;2022-07-29T02:13:47;2.90;;;2.70;;
9852;SDS011;4965;43.238;27.864;2022-07-29T02:16:15;4.97;;;2.92;;
9852;SDS011;4965;43.238;27.864;2022-07-29T02:18:49;3.33;;;3.00;;
9852;SDS011;4965;43.238;27.864;2022-07-29T02:21:19;3.63;;;2.63;;
9852;SDS011;4965;43.238;27.864;2022-07-29T02:23:50;3.40;;;2.95;;
9852;SDS011;4965;43.238;27.864;2022-07-29T02:26:19;3.90;;;2.70;;
9852;SDS011;4965;43.238;27.864;2022-07-29T02:28:48;3.63;;;3.10;;
9852;SDS011;4965;43.238;27.864;2022-07-29T02:31:16;3.05;;;2.75;;
9852;SDS011;4965;43.238;27.864;2022-07-29T02:33:45;4.75;;;3.05;;
9852;SDS011;4965;43.238;27.864;2022-07-29T02:36:16;3.63;;;3.20;;
9852;SDS011;4965;43.238;27.864;2022-07-29T02:38:47;3.35;;;2.50;;
9852;SDS011;4965;43.238;27.864;2022-07-29T02:41:19;5.15;;;3.03;;
9852;SDS011;4965;43.238;27.864;2022-07-29T02:43:55;5.60;;;2.92;;
9852;SDS011;4965;43.238;27.864;2022-07-29T02:46:25;5.50;;;3.10;;
9852;SDS011;4965;43.238;27.864;2022-07-29T02:48:59;6.47;;;3.20;;
9852;SDS011;4965;43.238;27.864;2022-07-29T02:51:33;2.85;;;2.65;;
9852;SDS011;4965;43.238;27.864;2022-07-29T02:54:07;4.57;;;3.00;;
9852;SDS011;4965;43.238;27.864;2022-07-29T02:56:35;4.88;;;3.20;;
9852;SDS011;4965;43.238;27.864;2022-07-29T02:59:05;3.15;;;2.65;;
9852;SDS011;4965;43.238;27.864;2022-07-29T03:01:39;2.80;;;2.60;;
9852;SDS011;4965;43.238;27.864;2022-07-29T03:04:09;4.22;;;3.17;;
9852;SDS011;4965;43.238;27.864;2022-07-29T03:06:39;3.78;;;3.03;;
9852;SDS011;4965;43.238;27.864;2022-07-29T03:09:07;6.07;;;2.90;;
9852;SDS011;4965;43.238;27.864;2022-07-29T03:11:36;6.75;;;2.70;;
9852;SDS011;4965;43.238;27.864;2022-07-29T03:14:04;3.38;;;3.00;;
9852;SDS011;4965;43.238;27.864;2022-07-29T03:16:32;3.45;;;3.15;;
9852;SDS011;4965;43.238;27.864;2022-07-29T03:19:01;5.32;;;3.03;;
9852;SDS011;4965;43.238;27.864;2022-07-29T03:21:31;3.65;;;3.25;;
9852;SDS011;4965;43.238;27.864;2022-07-29T03:23:58;5.38;;;3.30;;
9852;SDS011;4965;43.238;27.864;2022-07-29T03:26:25;4.63;;;3.28;;
9852;SDS011;4965;43.238;27.864;2022-07-29T03:28:52;5.28;;;3.25;;
9852;SDS011;4965;43.238;27.864;2022-07-29T03:31:19;6.57;;;3.38;;
9852;SDS011;4965;43.238;27.864;2022-07-29T03:33:45;4.28;;;3.00;;
9852;SDS011;4965;43.238;27.864;2022-07-29T03:36:12;4.47;;;3.03;;
9852;SDS011;4965;43.238;27.864;2022-07-29T03:38:41;3.40;;;3.10;;
9852;SDS011;4965;43.238;27.864;2022-07-29T03:41:10;7.93;;;3.40;;
9852;SDS011;4965;43.238;27.864;2022-07-29T03:43:39;3.20;;;2.97;;
9852;SDS011;4965;43.238;27.864;2022-07-29T03:46:09;5.38;;;2.75;;
9852;SDS011;4965;43.238;27.864;2022-07-29T03:48:39;3.75;;;2.67;;
9852;SDS011;4965;43.238;27.864;2022-07-29T03:51:12;5.30;;;2.50;;
9852;SDS011;4965;43.238;27.864;2022-07-29T03:53:41;8.23;;;2.60;;
9852;SDS011;4965;43.238;27.864;2022-07-29T03:56:08;3.30;;;2.22;;
9852;SDS011;4965;43.238;27.864;2022-07-29T03:58:36;2.80;;;2.60;;
9852;SDS011;4965;43.238;27.864;2022-07-29T04:01:04;5.03;;;2.60;;
9852;SDS011;4965;43.238;27.864;2022-07-29T04:03:31;3.72;;;2.65;;
9852;SDS011;4965;43.238;27.864;2022-07-29T04:05:59;4.80;;;2.50;;
9852;SDS011;4965;43.238;27.864;2022-07-29T04:08:27;7.35;;;2.55;;
9852;SDS011;4965;43.238;27.864;2022-07-29T04:10:55;5.18;;;2.40;;
9852;SDS011;4965;43.238;27.864;2022-07-29T04:13:22;5.30;;;2.60;;
9852;SDS011;4965;43.238;27.864;2022-07-29T04:15:49;7.05;;;2.60;;
9852;SDS011;4965;43.238;27.864;2022-07-29T04:18:16;2.40;;;2.20;;
9852;SDS011;4965;43.238;27.864;2022-07-29T04:20:43;4.68;;;2.30;;
9852;SDS011;4965;43.238;27.864;2022-07-29T04:23:10;3.50;;;2.17;;
9852;SDS011;4965;43.238;27.864;2022-07-29T04:25:37;3.50;;;2.08;;
9852;SDS011;4965;43.238;27.864;2022-07-29T04:28:06;8.02;;;2.40;;
9852;SDS011;4965;43.238;27.864;2022-07-29T04:30:34;3.10;;;2.20;;
9852;SDS011;4965;43.238;27.864;2022-07-29T04:33:03;5.50;;;2.45;;
9852;SDS011;4965;43.238;27.864;2022-07-29T04:35:33;3.17;;;2.53;;
9852;SDS011;4965;43.238;27.864;2022-07-29T04:38:02;7.88;;;2.97;;
9852;SDS011;4965;43.238;27.864;2022-07-29T04:40:30;2.35;;;2.15;;
9852;SDS011;4965;43.238;27.864;2022-07-29T04:42:58;3.40;;;2.50;;
9852;SDS011;4965;43.238;27.864;2022-07-29T04:45:27;4.07;;;2.58;;
9852;SDS011;4965;43.238;27.864;2022-07-29T04:47:54;2.30;;;2.10;;
9852;SDS011;4965;43.238;27.864;2022-07-29T04:50:21;4.18;;;2.30;;
9852;SDS011;4965;43.238;27.864;2022-07-29T04:52:48;2.58;;;2.38;;
9852;SDS011;4965;43.238;27.864;2022-07-29T04:55:15;4.80;;;2.10;;
9852;SDS011;4965;43.238;27.864;2022-07-29T04:57:42;4.32;;;2.10;;
9852;SDS011;4965;43.238;27.864;2022-07-29T05:00:09;3.40;;;2.55;;
9852;SDS011;4965;43.238;27.864;2022-07-29T05:02:38;11.55;;;3.00;;
9852;SDS011;4965;43.238;27.864;2022-07-29T05:05:05;3.72;;;2.20;;
9852;SDS011;4965;43.238;27.864;2022-07-29T05:07:32;2.55;;;2.08;;
9852;SDS011;4965;43.238;27.864;2022-07-29T05:09:59;5.80;;;2.40;;
9852;SDS011;4965;43.238;27.864;2022-07-29T05:12:26;5.85;;;2.17;;
9852;SDS011;4965;43.238;27.864;2022-07-29T05:14:53;4.32;;;2.17;;
9852;SDS011;4965;43.238;27.864;2022-07-29T05:17:20;4.45;;;2.13;;
9852;SDS011;4965;43.238;27.864;2022-07-29T05:19:48;1.90;;;1.80;;
9852;SDS011;4965;43.238;27.864;2022-07-29T05:22:16;3.83;;;1.88;;
9852;SDS011;4965;43.238;27.864;2022-07-29T05:24:43;4.93;;;2.30;;
9852;SDS011;4965;43.238;27.864;2022-07-29T05:27:10;4.53;;;2.30;;
9852;SDS011;4965;43.238;27.864;2022-07-29T05:29:37;6.65;;;2.35;;
9852;SDS011;4965;43.238;27.864;2022-07-29T05:32:05;7.80;;;2.65;;
9852;SDS011;4965;43.238;27.864;2022-07-29T05:34:32;7.03;;;2.50;;
9852;SDS011;4965;43.238;27.864;2022-07-29T05:37:00;11.23;;;2.92;;
9852;SDS011;4965;43.238;27.864;2022-07-29T05:39:27;3.10;;;2.20;;
9852;SDS011;4965;43.238;27.864;2022-07-29T05:41:54;6.30;;;2.60;;
9852;SDS011;4965;43.238;27.864;2022-07-29T05:44:20;7.90;;;2.90;;
9852;SDS011;4965;43.238;27.864;2022-07-29T05:46:47;3.67;;;2.55;;
9852;SDS011;4965;43.238;27.864;2022-07-29T05:49:14;4.82;;;2.70;;
9852;SDS011;4965;43.238;27.864;2022-07-29T05:51:41;9.90;;;2.50;;
9852;SDS011;4965;43.238;27.864;2022-07-29T05:54:09;4.30;;;2.55;;
9852;SDS011;4965;43.238;27.864;2022-07-29T05:56:36;2.97;;;2.20;;
9852;SDS011;4965;43.238;27.864;2022-07-29T05:59:03;10.25;;;2.75;;
9852;SDS011;4965;43.238;27.864;2022-07-29T06:01:30;18.05;;;3.15;;
9852;SDS011;4965;43.238;27.864;2022-07-29T06:03:57;11.88;;;2.70;;
9852;SDS011;4965;43.238;27.864;2022-07-29T06:06:24;2.95;;;2.03;;
9852;SDS011;4965;43.238;27.864;2022-07-29T06:08:51;5.00;;;2.33;;
9852;SDS011;4965;43.238;27.864;2022-07-29T06:11:19;2.45;;;2.30;;
9852;SDS011;4965;43.238;27.864;2022-07-29T06:13:46;6.22;;;2.33;;
9852;SDS011;4965;43.238;27.864;2022-07-29T06:16:13;4.53;;;2.30;;
9852;SDS011;4965;43.238;27.864;2022-07-29T06:18:40;2.40;;;2.20;;
9852;SDS011;4965;43.238;27.864;2022-07-29T06:21:07;5.18;;;2.20;;
9852;SDS011;4965;43.238;27.864;2022-07-29T06:23:35;6.32;;;2.13;;
9852;SDS011;4965;43.238;27.864;2022-07-29T06:26:02;6.85;;;2.30;;
9852;SDS011;4965;43.238;27.864;2022-07-29T06:28:30;2.42;;;2.22;;
9852;SDS011;4965;43.238;27.864;2022-07-29T06:30:58;6.47;;;2.45;;
9852;SDS011;4965;43.238;27.864;2022-07-29T06:33:25;9.10;;;2.78;;
9852;SDS011;4965;43.238;27.864;2022-07-29T06:35:52;7.00;;;2.50;;
9852;SDS011;4965;43.238;27.864;2022-07-29T06:38:19;4.57;;;1.98;;
9852;SDS011;4965;43.238;27.864;2022-07-29T06:40:46;2.83;;;2.50;;
9852;SDS011;4965;43.238;27.864;2022-07-29T06:43:33;6.45;;;2.50;;
9852;SDS011;4965;43.238;27.864;2022-07-29T06:46:03;7.38;;;2.10;;
9852;SDS011;4965;43.238;27.864;2022-07-29T06:48:31;2.45;;;2.25;;
9852;SDS011;4965;43.238;27.864;2022-07-29T06:50:58;2.60;;;2.40;;
9852;SDS011;4965;43.238;27.864;2022-07-29T06:53:25;3.22;;;2.45;;
9852;SDS011;4965;43.238;27.864;2022-07-29T06:55:53;11.10;;;3.05;;
9852;SDS011;4965;43.238;27.864;2022-07-29T06:58:20;8.60;;;2.83;;
9852;SDS011;4965;43.238;27.864;2022-07-29T07:00:48;5.85;;;2.85;;
9852;SDS011;4965;43.238;27.864;2022-07-29T07:03:16;3.22;;;2.70;;
9852;SDS011;4965;43.238;27.864;2022-07-29T07:05:44;9.57;;;2.78;;
9852;SDS011;4965;43.238;27.864;2022-07-29T07:08:11;11.35;;;3.05;;
9852;SDS011;4965;43.238;27.864;2022-07-29T07:10:41;17.25;;;3.30;;
9852;SDS011;4965;43.238;27.864;2022-07-29T07:13:09;6.00;;;4.15;;
9852;SDS011;4965;43.238;27.864;2022-07-29T07:15:36;10.32;;;4.18;;
9852;SDS011;4965;43.238;27.864;2022-07-29T07:18:04;10.57;;;3.55;;
9852;SDS011;4965;43.238;27.864;2022-07-29T07:20:31;19.48;;;4.00;;
9852;SDS011;4965;43.238;27.864;2022-07-29T07:22:58;10.02;;;4.05;;
9852;SDS011;4965;43.238;27.864;2022-07-29T07:25:25;12.40;;;3.75;;
9852;SDS011;4965;43.238;27.864;2022-07-29T07:27:52;11.63;;;4.22;;
9852;SDS011;4965;43.238;27.864;2022-07-29T07:30:19;13.98;;;3.75;;
9852;SDS011;4965;43.238;27.864;2022-07-29T07:32:47;11.95;;;3.95;;
9852;SDS011;4965;43.238;27.864;2022-07-29T07:35:15;7.57;;;3.90;;
9852;SDS011;4965;43.238;27.864;2022-07-29T07:37:42;13.45;;;3.83;;
9852;SDS011;4965;43.238;27.864;2022-07-29T07:40:10;11.43;;;3.40;;
9852;SDS011;4965;43.238;27.864;2022-07-29T07:42:38;14.85;;;4.53;;
9852;SDS011;4965;43.238;27.864;2022-07-29T07:45:05;16.98;;;4.15;;
9852;SDS011;4965;43.238;27.864;2022-07-29T07:47:34;17.27;;;5.22;;
9852;SDS011;4965;43.238;27.864;2022-07-29T07:50:01;15.63;;;4.50;;
9852;SDS011;4965;43.238;27.864;2022-07-29T07:52:31;16.73;;;5.05;;
9852;SDS011;4965;43.238;27.864;2022-07-29T07:54:57;14.05;;;4.22;;
9852;SDS011;4965;43.238;27.864;2022-07-29T07:57:24;9.55;;;4.55;;
9852;SDS011;4965;43.238;27.864;2022-07-29T07:59:51;10.35;;;4.15;;
9852;SDS011;4965;43.238;27.864;2022-07-29T08:02:18;10.15;;;3.85;;
9852;SDS011;4965;43.238;27.864;2022-07-29T08:04:45;8.35;;;3.80;;
9852;SDS011;4965;43.238;27.864;2022-07-29T08:07:12;13.68;;;3.58;;
9852;SDS011;4965;43.238;27.864;2022-07-29T08:09:41;5.65;;;3.45;;
9852;SDS011;4965;43.238;27.864;2022-07-29T08:12:08;10.93;;;3.30;;
9852;SDS011;4965;43.238;27.864;2022-07-29T08:14:35;9.23;;;3.25;;
9852;SDS011;4965;43.238;27.864;2022-07-29T08:17:02;12.40;;;3.38;;
9852;SDS011;4965;43.238;27.864;2022-07-29T08:19:29;6.32;;;3.22;;
9852;SDS011;4965;43.238;27.864;2022-07-29T08:21:56;11.15;;;3.20;;
9852;SDS011;4965;43.238;27.864;2022-07-29T08:24:23;16.05;;;3.58;;
9852;SDS011;4965;43.238;27.864;2022-07-29T08:27:09;9.65;;;3.15;;
9852;SDS011;4965;43.238;27.864;2022-07-29T08:29:36;6.88;;;3.35;;
9852;SDS011;4965;43.238;27.864;2022-07-29T08:32:04;5.47;;;2.83;;
9852;SDS011;4965;43.238;27.864;2022-07-29T08:34:32;6.28;;;3.15;;
9852;SDS011;4965;43.238;27.864;2022-07-29T08:37:00;7.03;;;2.78;;
9852;SDS011;4965;43.238;27.864;2022-07-29T08:39:26;7.00;;;2.72;;
9852;SDS011;4965;43.238;27.864;2022-07-29T08:41:53;9.52;;;3.17;;
9852;SDS011;4965;43.238;27.864;2022-07-29T08:44:22;6.47;;;3.17;;
9852;SDS011;4965;43.238;27.864;2022-07-29T08:46:49;6.15;;;3.10;;
9852;SDS011;4965;43.238;27.864;2022-07-29T08:49:16;3.90;;;3.10;;
9852;SDS011;4965;43.238;27.864;2022-07-29T08:51:43;3.33;;;2.70;;
9852;SDS011;4965;43.238;27.864;2022-07-29T08:54:11;7.82;;;3.00;;
9852;SDS011;4965;43.238;27.864;2022-07-29T08:56:43;10.00;;;3.30;;
9852;SDS011;4965;43.238;27.864;2022-07-29T08:59:11;9.02;;;3.47;;
9852;SDS011;4965;43.238;27.864;2022-07-29T09:01:41;9.05;;;3.15;;
9852;SDS011;4965;43.238;27.864;2022-07-29T09:04:11;8.27;;;2.92;;
9852;SDS011;4965;43.238;27.864;2022-07-29T09:06:41;5.20;;;3.20;;
9852;SDS011;4965;43.238;27.864;2022-07-29T09:09:10;7.47;;;2.95;;
9852;SDS011;4965;43.238;27.864;2022-07-29T09:11:38;7.93;;;3.47;;
9852;SDS011;4965;43.238;27.864;2022-07-29T09:14:06;11.02;;;4.25;;
9852;SDS011;4965;43.238;27.864;2022-07-29T09:16:47;8.20;;;3.28;;
9852;SDS011;4965;43.238;27.864;2022-07-29T09:19:24;6.75;;;2.90;;
9852;SDS011;4965;43.238;27.864;2022-07-29T09:21:53;7.35;;;2.78;;
9852;SDS011;4965;43.238;27.864;2022-07-29T09:27:18;8.90;;;3.08;;
9852;SDS011;4965;43.238;27.864;2022-07-29T09:29:47;12.40;;;3.67;;
9852;SDS011;4965;43.238;27.864;2022-07-29T09:32:23;9.15;;;2.83;;
9852;SDS011;4965;43.238;27.864;2022-07-29T09:34:51;15.10;;;3.50;;
9852;SDS011;4965;43.238;27.864;2022-07-29T09:37:41;5.80;;;3.10;;
9852;SDS011;4965;43.238;27.864;2022-07-29T09:40:13;5.68;;;3.38;;
9852;SDS011;4965;43.238;27.864;2022-07-29T09:42:42;3.85;;;2.70;;
9852;SDS011;4965;43.238;27.864;2022-07-29T09:45:09;8.80;;;3.03;;
9852;SDS011;4965;43.238;27.864;2022-07-29T09:47:44;5.82;;;3.03;;
9852;SDS011;4965;43.238;27.864;2022-07-29T09:50:14;8.95;;;2.60;;
9852;SDS011;4965;43.238;27.864;2022-07-29T09:52:45;5.90;;;2.40;;
9852;SDS011;4965;43.238;27.864;2022-07-29T09:55:13;4.95;;;2.90;;
9852;SDS011;4965;43.238;27.864;2022-07-29T09:57:40;7.93;;;3.10;;
9852;SDS011;4965;43.238;27.864;2022-07-29T10:00:08;8.35;;;2.92;;
9852;SDS011;4965;43.238;27.864;2022-07-29T10:02:36;5.05;;;2.90;;
9852;SDS011;4965;43.238;27.864;2022-07-29T10:05:06;8.98;;;3.00;;
9852;SDS011;4965;43.238;27.864;2022-07-29T10:07:44;7.10;;;2.60;;
9852;SDS011;4965;43.238;27.864;2022-07-29T10:10:17;4.60;;;2.60;;
9852;SDS011;4965;43.238;27.864;2022-07-29T10:12:49;8.50;;;2.78;;
9852;SDS011;4965;43.238;27.864;2022-07-29T10:15:21;5.88;;;3.20;;
9852;SDS011;4965;43.238;27.864;2022-07-29T10:17:50;5.82;;;3.10;;
9852;SDS011;4965;43.238;27.864;2022-07-29T10:20:19;5.30;;;2.60;;
9852;SDS011;4965;43.238;27.864;2022-07-29T10:22:47;8.90;;;2.70;;
9852;SDS011;4965;43.238;27.864;2022-07-29T10:25:15;5.93;;;2.63;;
9852;SDS011;4965;43.238;27.864;2022-07-29T10:27:42;5.47;;;2.50;;
9852;SDS011;4965;43.238;27.864;2022-07-29T10:30:10;9.65;;;2.72;;
9852;SDS011;4965;43.238;27.864;2022-07-29T10:32:43;8.95;;;2.95;;
9852;SDS011;4965;43.238;27.864;2022-07-29T10:38:18;6.93;;;2.28;;
9852;SDS011;4965;43.238;27.864;2022-07-29T10:40:58;5.65;;;2.45;;
9852;SDS011;4965;43.238;27.864;2022-07-29T10:43:55;5.40;;;2.70;;
9852;SDS011;4965;43.238;27.864;2022-07-29T10:46:25;4.60;;;2.85;;
9852;SDS011;4965;43.238;27.864;2022-07-29T10:49:11;4.13;;;2.28;;
9852;SDS011;4965;43.238;27.864;2022-07-29T10:51:58;4.65;;;2.15;;
9852;SDS011;4965;43.238;27.864;2022-07-29T10:57:19;8.30;;;2.60;;
9852;SDS011;4965;43.238;27.864;2022-07-29T10:59:47;6.43;;;2.40;;
9852;SDS011;4965;43.238;27.864;2022-07-29T11:05:08;7.90;;;2.45;;
9852;SDS011;4965;43.238;27.864;2022-07-29T11:07:38;4.75;;;2.10;;
9852;SDS011;4965;43.238;27.864;2022-07-29T11:10:25;3.58;;;2.60;;
9852;SDS011;4965;43.238;27.864;2022-07-29T11:12:52;5.05;;;2.50;;
9852;SDS011;4965;43.238;27.864;2022-07-29T11:15:20;4.85;;;2.25;;
9852;SDS011;4965;43.238;27.864;2022-07-29T11:18:07;2.65;;;2.35;;
9852;SDS011;4965;43.238;27.864;2022-07-29T11:20:39;9.18;;;2.47;;
9852;SDS011;4965;43.238;27.864;2022-07-29T11:23:24;6.32;;;2.40;;
9852;SDS011;4965;43.238;27.864;2022-07-29T11:28:50;5.32;;;2.53;;
9852;SDS011;4965;43.238;27.864;2022-07-29T11:31:29;3.20;;;2.58;;
9852;SDS011;4965;43.238;27.864;2022-07-29T11:40:10;2.65;;;2.45;;
9852;SDS011;4965;43.238;27.864;2022-07-29T11:42:40;10.02;;;2.80;;
9852;SDS011;4965;43.238;27.864;2022-07-29T11:45:12;7.82;;;2.90;;
9852;SDS011;4965;43.238;27.864;2022-07-29T11:47:41;7.43;;;3.10;;
9852;SDS011;4965;43.238;27.864;2022-07-29T11:50:15;5.22;;;2.90;;
9852;SDS011;4965;43.238;27.864;2022-07-29T11:52:44;7.03;;;2.80;;
9852;SDS011;4965;43.238;27.864;2022-07-29T11:55:16;10.38;;;2.70;;
9852;SDS011;4965;43.238;27.864;2022-07-29T11:57:47;11.63;;;3.45;;
9852;SDS011;4965;43.238;27.864;2022-07-29T12:00:26;4.45;;;2.88;;
9852;SDS011;4965;43.238;27.864;2022-07-29T12:02:55;6.15;;;3.22;;
9852;SDS011;4965;43.238;27.864;2022-07-29T12:05:30;5.25;;;3.05;;
9852;SDS011;4965;43.238;27.864;2022-07-29T12:08:12;18.83;;;3.42;;
9852;SDS011;4965;43.238;27.864;2022-07-29T12:10:42;12.57;;;3.47;;
9852;SDS011;4965;43.238;27.864;2022-07-29T12:13:10;4.70;;;2.85;;
9852;SDS011;4965;43.238;27.864;2022-07-29T12:15:38;4.45;;;2.88;;
9852;SDS011;4965;43.238;27.864;2022-07-29T12:18:15;3.22;;;2.88;;
9852;SDS011;4965;43.238;27.864;2022-07-29T12:20:44;6.80;;;2.80;;
9852;SDS011;4965;43.238;27.864;2022-07-29T12:23:11;8.52;;;2.88;;
9852;SDS011;4965;43.238;27.864;2022-07-29T12:25:40;9.20;;;3.00;;
9852;SDS011;4965;43.238;27.864;2022-07-29T12:28:10;5.13;;;2.95;;
9852;SDS011;4965;43.238;27.864;2022-07-29T12:30:52;5.72;;;2.50;;
9852;SDS011;4965;43.238;27.864;2022-07-29T12:33:20;9.80;;;2.97;;
9852;SDS011;4965;43.238;27.864;2022-07-29T12:35:49;3.13;;;2.45;;
9852;SDS011;4965;43.238;27.864;2022-07-29T12:38:18;6.50;;;2.63;;
9852;SDS011;4965;43.238;27.864;2022-07-29T12:40:47;12.30;;;3.05;;
9852;SDS011;4965;43.238;27.864;2022-07-29T12:43:16;5.35;;;3.10;;
9852;SDS011;4965;43.238;27.864;2022-07-29T12:45:45;12.00;;;2.70;;
9852;SDS011;4965;43.238;27.864;2022-07-29T12:48:16;10.45;;;2.80;;
9852;SDS011;4965;43.238;27.864;2022-07-29T12:50:53;4.32;;;2.50;;
9852;SDS011;4965;43.238;27.864;2022-07-29T12:53:27;8.82;;;2.70;;
9852;SDS011;4965;43.238;27.864;2022-07-29T12:55:56;14.50;;;3.08;;
9852;SDS011;4965;43.238;27.864;2022-07-29T12:58:30;6.38;;;2.38;;
9852;SDS011;4965;43.238;27.864;2022-07-29T13:00:59;8.18;;;2.80;;
9852;SDS011;4965;43.238;27.864;2022-07-29T13:03:41;8.95;;;2.60;;
9852;SDS011;4965;43.238;27.864;2022-07-29T13:06:32;12.15;;;2.60;;
9852;SDS011;4965;43.238;27.864;2022-07-29T13:09:01;11.82;;;2.90;;
9852;SDS011;4965;43.238;27.864;2022-07-29T13:11:33;5.68;;;2.35;;
9852;SDS011;4965;43.238;27.864;2022-07-29T13:14:02;3.70;;;2.42;;
9852;SDS011;4965;43.238;27.864;2022-07-29T13:16:29;10.32;;;2.85;;
9852;SDS011;4965;43.238;27.864;2022-07-29T13:19:04;5.70;;;2.65;;
9852;SDS011;4965;43.238;27.864;2022-07-29T13:21:35;8.68;;;3.28;;
9852;SDS011;4965;43.238;27.864;2022-07-29T13:24:03;5.60;;;3.25;;
9852;SDS011;4965;43.238;27.864;2022-07-29T13:26:30;7.75;;;2.72;;
9852;SDS011;4965;43.238;27.864;2022-07-29T13:28:59;5.15;;;2.97;;
9852;SDS011;4965;43.238;27.864;2022-07-29T13:31:26;8.13;;;2.78;;
9852;SDS011;4965;43.238;27.864;2022-07-29T13:33:53;16.90;;;3.42;;
9852;SDS011;4965;43.238;27.864;2022-07-29T13:36:21;10.73;;;3.13;;
9852;SDS011;4965;43.238;27.864;2022-07-29T13:38:48;10.18;;;3.00;;
9852;SDS011;4965;43.238;27.864;2022-07-29T13:41:15;8.65;;;3.70;;
9852;SDS011;4965;43.238;27.864;2022-07-29T13:43:43;9.60;;;2.72;;
9852;SDS011;4965;43.238;27.864;2022-07-29T13:46:10;5.25;;;3.08;;
9852;SDS011;4965;43.238;27.864;2022-07-29T13:48:37;10.32;;;3.50;;
9852;SDS011;4965;43.238;27.864;2022-07-29T13:51:04;3.75;;;3.00;;
9852;SDS011;4965;43.238;27.864;2022-07-29T13:53:31;6.15;;;2.83;;
9852;SDS011;4965;43.238;27.864;2022-07-29T13:55:57;2.65;;;2.42;;
9852;SDS011;4965;43.238;27.864;2022-07-29T13:58:25;8.15;;;3.33;;
9852;SDS011;4965;43.238;27.864;2022-07-29T14:00:53;5.32;;;2.72;;
9852;SDS011;4965;43.238;27.864;2022-07-29T14:03:20;7.63;;;2.95;;
9852;SDS011;4965;43.238;27.864;2022-07-29T14:05:47;11.38;;;3.25;;
9852;SDS011;4965;43.238;27.864;2022-07-29T14:08:13;8.57;;;3.17;;
9852;SDS011;4965;43.238;27.864;2022-07-29T14:10:40;19.88;;;3.67;;
9852;SDS011;4965;43.238;27.864;2022-07-29T14:13:07;4.95;;;3.00;;
9852;SDS011;4965;43.238;27.864;2022-07-29T14:15:34;3.30;;;2.92;;
9852;SDS011;4965;43.238;27.864;2022-07-29T14:18:02;4.82;;;3.33;;
9852;SDS011;4965;43.238;27.864;2022-07-29T14:20:30;6.88;;;2.97;;
9852;SDS011;4965;43.238;27.864;2022-07-29T14:22:58;6.18;;;2.72;;
9852;SDS011;4965;43.238;27.864;2022-07-29T14:25:25;8.30;;;3.45;;
9852;SDS011;4965;43.238;27.864;2022-07-29T14:27:52;7.88;;;3.40;;
9852;SDS011;4965;43.238;27.864;2022-07-29T14:30:19;4.03;;;2.95;;
9852;SDS011;4965;43.238;27.864;2022-07-29T14:32:47;3.85;;;2.67;;
9852;SDS011;4965;43.238;27.864;2022-07-29T14:35:17;8.05;;;3.05;;
9852;SDS011;4965;43.238;27.864;2022-07-29T14:37:44;6.22;;;2.70;;
9852;SDS011;4965;43.238;27.864;2022-07-29T14:40:11;19.42;;;3.25;;
9852;SDS011;4965;43.238;27.864;2022-07-29T14:42:38;5.18;;;2.72;;
9852;SDS011;4965;43.238;27.864;2022-07-29T14:45:06;5.88;;;2.78;;
9852;SDS011;4965;43.238;27.864;2022-07-29T14:47:34;6.38;;;2.60;;
9852;SDS011;4965;43.238;27.864;2022-07-29T14:50:02;7.05;;;2.75;;
9852;SDS011;4965;43.238;27.864;2022-07-29T14:52:31;5.80;;;3.00;;
9852;SDS011;4965;43.238;27.864;2022-07-29T14:54:58;3.10;;;2.50;;
9852;SDS011;4965;43.238;27.864;2022-07-29T14:57:25;8.23;;;3.25;;
9852;SDS011;4965;43.238;27.864;2022-07-29T14:59:52;11.85;;;2.60;;
9852;SDS011;4965;43.238;27.864;2022-07-29T15:02:19;9.70;;;2.80;;
9852;SDS011;4965;43.238;27.864;2022-07-29T15:04:49;12.60;;;3.50;;
9852;SDS011;4965;43.238;27.864;2022-07-29T15:07:16;8.38;;;3.35;;
9852;SDS011;4965;43.238;27.864;2022-07-29T15:09:44;10.63;;;3.10;;
9852;SDS011;4965;43.238;27.864;2022-07-29T15:12:11;11.85;;;3.20;;
9852;SDS011;4965;43.238;27.864;2022-07-29T15:14:38;7.75;;;3.60;;
9852;SDS011;4965;43.238;27.864;2022-07-29T15:17:05;11.23;;;3.40;;
9852;SDS011;4965;43.238;27.864;2022-07-29T15:19:32;5.20;;;3.72;;
9852;SDS011;4965;43.238;27.864;2022-07-29T15:21:59;4.45;;;3.40;;
9852;SDS011;4965;43.238;27.864;2022-07-29T15:24:26;6.28;;;3.80;;
9852;SDS011;4965;43.238;27.864;2022-07-29T15:26:54;9.27;;;3.88;;
9852;SDS011;4965;43.238;27.864;2022-07-29T15:29:21;7.20;;;3.63;;
9852;SDS011;4965;43.238;27.864;2022-07-29T15:31:48;4.40;;;2.90;;
9852;SDS011;4965;43.238;27.864;2022-07-29T15:34:15;6.70;;;3.30;;
9852;SDS011;4965;43.238;27.864;2022-07-29T15:36:42;5.05;;;3.17;;